createdAt,value
2022-12-17T00:02:31.881Z,-6.37
2022-12-17T00:05:17.378Z,-6.39
2022-12-17T00:08:02.891Z,-6.41
2022-12-17T00:10:48.149Z,-6.26
2022-12-17T00:13:41.876Z,-6.43
2022-12-17T00:16:27.604Z,-6.39
2022-12-17T00:19:13.015Z,-6.27
2022-12-17T00:21:58.592Z,-6.27
2022-12-17T00:24:45.396Z,-6.26
2022-12-17T00:27:30.826Z,-6.29
2022-12-17T00:30:16.207Z,-6.26
2022-12-17T00:33:01.647Z,-6.32
2022-12-17T00:35:47.320Z,-6.27
2022-12-17T00:38:36.438Z,-6.33
2022-12-17T00:41:22.416Z,-6.36
2022-12-17T00:44:14.104Z,-6.23
2022-12-17T00:46:59.724Z,-6.24
2022-12-17T00:49:45.350Z,-6.31
2022-12-17T00:52:30.901Z,-6.33
2022-12-17T00:55:16.514Z,-6.28
2022-12-17T00:58:15.803Z,-6.43
2022-12-17T01:01:01.998Z,-6.34
2022-12-17T01:03:47.350Z,-6.37
2022-12-17T01:06:33.271Z,-6.37
2022-12-17T01:09:18.863Z,-6.37
2022-12-17T01:12:04.441Z,-6.48
2022-12-17T01:14:50.045Z,-6.46
2022-12-17T01:17:35.597Z,-6.44
2022-12-17T01:20:20.860Z,-6.42
2022-12-17T01:23:06.363Z,-6.33
2022-12-17T01:25:51.794Z,-6.42
2022-12-17T01:28:44.260Z,-6.45
2022-12-17T01:31:34.943Z,-6.47
2022-12-17T01:34:20.860Z,-6.51
2022-12-17T01:37:06.421Z,-6.52
2022-12-17T01:39:51.949Z,-6.51
2022-12-17T01:42:37.520Z,-6.50
2022-12-17T01:45:23.541Z,-6.48
2022-12-17T01:48:10.636Z,-6.46
2022-12-17T01:51:00.385Z,-6.44
2022-12-17T01:53:50.089Z,-6.46
2022-12-17T01:56:36.078Z,-6.35
2022-12-17T01:59:25.102Z,-6.54
2022-12-17T02:02:10.497Z,-6.41
2022-12-17T02:04:56.316Z,-6.47
2022-12-17T02:08:03.421Z,-6.40
2022-12-17T02:11:10.331Z,-6.56
2022-12-17T02:14:04.198Z,-6.46
2022-12-17T02:16:55.089Z,-6.43
2022-12-17T02:20:01.996Z,-6.54
2022-12-17T02:23:13.082Z,-6.58
2022-12-17T02:26:13.826Z,-6.57
2022-12-17T02:29:05.019Z,-6.67
2022-12-17T02:31:52.332Z,-6.62
2022-12-17T02:34:37.984Z,-6.52
2022-12-17T02:37:23.565Z,-6.62
2022-12-17T02:40:09.238Z,-6.62
2022-12-17T02:42:55.651Z,-6.64
2022-12-17T02:45:42.580Z,-6.68
2022-12-17T02:48:30.594Z,-6.65
2022-12-17T02:51:17.535Z,-6.61
2022-12-17T02:54:09.847Z,-6.65
2022-12-17T02:56:55.425Z,-6.63
2022-12-17T02:59:42.836Z,-6.63
2022-12-17T03:02:28.209Z,-6.66
2022-12-17T03:05:42.708Z,-6.68
2022-12-17T03:08:32.869Z,-6.66
2022-12-17T03:11:18.345Z,-6.69
2022-12-17T03:14:03.886Z,-6.75
2022-12-17T03:16:49.561Z,-6.84
2022-12-17T03:19:35.358Z,-6.72
2022-12-17T03:22:20.858Z,-6.73
2022-12-17T03:25:06.297Z,-6.67
2022-12-17T03:27:51.964Z,-6.65
2022-12-17T03:30:39.006Z,-6.73
2022-12-17T03:33:27.006Z,-6.71
2022-12-17T03:36:13.648Z,-6.69
2022-12-17T03:38:59.065Z,-6.61
2022-12-17T03:41:44.302Z,-6.69
2022-12-17T03:44:29.946Z,-6.67
2022-12-17T03:47:15.328Z,-6.85
2022-12-17T03:50:00.939Z,-6.74
2022-12-17T03:52:46.522Z,-6.71
2022-12-17T03:55:32.181Z,-6.79
2022-12-17T03:58:17.736Z,-6.78
2022-12-17T04:01:03.384Z,-6.66
2022-12-17T04:03:49.126Z,-6.76
2022-12-17T04:06:34.570Z,-6.64
2022-12-17T04:09:20.096Z,-6.61
2022-12-17T04:12:05.641Z,-6.69
2022-12-17T04:14:54.266Z,-6.68
2022-12-17T04:17:39.721Z,-6.63
2022-12-17T04:20:25.778Z,-6.67
2022-12-17T04:23:11.009Z,-6.59
2022-12-17T04:25:56.609Z,-6.65
2022-12-17T04:28:42.239Z,-6.68
2022-12-17T04:31:27.777Z,-6.64
2022-12-17T04:34:13.306Z,-6.62
2022-12-17T04:36:59.412Z,-6.54
2022-12-17T04:39:45.814Z,-6.62
2022-12-17T04:42:31.404Z,-6.62
2022-12-17T04:45:17.010Z,-6.57
2022-12-17T04:48:02.610Z,-6.65
2022-12-17T04:50:47.881Z,-6.58
2022-12-17T04:53:33.577Z,-6.64
2022-12-17T04:56:19.572Z,-6.51
2022-12-17T04:59:14.919Z,-6.60
2022-12-17T05:02:00.477Z,-6.70
2022-12-17T05:04:46.149Z,-6.57
2022-12-17T05:07:31.631Z,-6.59
2022-12-17T05:10:17.039Z,-6.59
2022-12-17T05:13:02.603Z,-6.55
2022-12-17T05:15:52.943Z,-6.59
2022-12-17T05:18:39.015Z,-6.66
2022-12-17T05:21:24.986Z,-6.59
2022-12-17T05:24:11.761Z,-6.56
2022-12-17T05:30:02.789Z,-6.48
2022-12-17T05:32:48.874Z,-6.54
2022-12-17T05:35:34.416Z,-6.52
2022-12-17T05:38:24.099Z,-6.48
2022-12-17T05:41:09.624Z,-6.54
2022-12-17T05:43:55.112Z,-6.43
2022-12-17T05:46:40.818Z,-6.61
2022-12-17T05:49:26.354Z,-6.53
2022-12-17T05:52:11.856Z,-6.42
2022-12-17T05:54:57.318Z,-6.40
2022-12-17T05:57:42.810Z,-6.40
2022-12-17T06:00:28.896Z,-6.41
2022-12-17T06:03:21.631Z,-6.44
2022-12-17T06:06:12.928Z,-6.33
2022-12-17T06:08:58.466Z,-6.36
2022-12-17T06:11:44.030Z,-6.36
2022-12-17T06:14:49.550Z,-6.28
2022-12-17T06:17:34.911Z,-6.28
2022-12-17T06:20:20.290Z,-6.32
2022-12-17T06:23:19.242Z,-6.33
2022-12-17T06:26:04.615Z,-6.35
2022-12-17T06:28:50.697Z,-6.29
2022-12-17T06:31:36.322Z,-6.23
2022-12-17T06:34:21.758Z,-6.19
2022-12-17T06:37:07.280Z,-6.24
2022-12-17T06:39:52.735Z,-6.27
2022-12-17T06:42:38.598Z,-6.19
2022-12-17T06:45:24.574Z,-6.24
2022-12-17T06:48:10.070Z,-6.19
2022-12-17T06:50:55.434Z,-6.21
2022-12-17T06:53:41.059Z,-6.16
2022-12-17T06:59:26.076Z,-6.10
2022-12-17T07:02:11.916Z,-6.00
2022-12-17T07:04:57.197Z,-6.06
2022-12-17T07:07:42.484Z,-6.09
2022-12-17T07:10:28.061Z,-5.95
2022-12-17T07:13:13.567Z,-5.97
2022-12-17T07:15:59.225Z,-5.94
2022-12-17T07:18:44.766Z,-6.00
2022-12-17T07:21:30.392Z,-5.93
2022-12-17T07:24:16.069Z,-5.85
2022-12-17T07:27:01.629Z,-5.86
2022-12-17T07:29:47.150Z,-5.82
2022-12-17T07:32:32.694Z,-5.87
2022-12-17T07:35:18.230Z,-5.80
2022-12-17T07:38:03.787Z,-5.88
2022-12-17T07:40:49.311Z,-5.91
2022-12-17T07:43:35.293Z,-5.79
2022-12-17T07:46:20.942Z,-5.87
2022-12-17T07:49:06.541Z,-5.77
2022-12-17T07:51:52.205Z,-5.71
2022-12-17T07:54:37.859Z,-5.71
2022-12-17T07:57:27.898Z,-5.59
2022-12-17T08:00:13.601Z,-5.60
2022-12-17T08:02:59.203Z,-5.63
2022-12-17T08:05:44.889Z,-5.64
2022-12-17T08:08:32.410Z,-5.63
2022-12-17T08:11:18.224Z,-5.65
2022-12-17T08:14:03.915Z,-5.49
2022-12-17T08:16:49.432Z,-5.56
2022-12-17T08:19:34.944Z,-5.46
2022-12-17T08:22:20.552Z,-5.45
2022-12-17T08:25:06.033Z,-5.41
2022-12-17T08:27:51.474Z,-5.37
2022-12-17T08:30:37.015Z,-5.32
2022-12-17T08:33:23.634Z,-5.34
2022-12-17T08:36:16.343Z,-5.41
2022-12-17T08:39:01.915Z,-5.27
2022-12-17T08:41:52.697Z,-5.40
2022-12-17T08:44:39.725Z,-5.33
2022-12-17T08:47:25.372Z,-5.27
2022-12-17T08:50:10.911Z,-5.28
2022-12-17T08:52:56.580Z,-5.32
2022-12-17T08:55:41.989Z,-5.21
2022-12-17T08:58:27.548Z,-5.14
2022-12-17T09:01:13.270Z,-5.10
2022-12-17T09:03:58.814Z,-5.12
2022-12-17T09:06:44.392Z,-5.21
2022-12-17T09:09:30.033Z,-5.17
2022-12-17T09:12:15.330Z,-5.11
2022-12-17T09:15:20.688Z,-5.14
2022-12-17T09:18:06.212Z,-5.08
2022-12-17T09:20:51.566Z,-4.97
2022-12-17T09:23:37.474Z,-4.90
2022-12-17T09:26:23.229Z,-5.07
2022-12-17T09:29:08.502Z,-5.08
2022-12-17T09:31:54.065Z,-5.06
2022-12-17T09:34:39.563Z,-4.99
2022-12-17T09:37:25.160Z,-4.99
2022-12-17T09:40:10.707Z,-4.82
2022-12-17T09:43:14.823Z,-4.85
2022-12-17T09:46:46.654Z,-4.92
2022-12-17T09:49:44.181Z,-4.85
2022-12-17T09:52:45.739Z,-4.98
2022-12-17T09:55:53.936Z,-4.87
2022-12-17T09:58:48.076Z,-4.80
2022-12-17T10:01:43.031Z,-4.91
2022-12-17T10:04:35.514Z,-4.94
2022-12-17T10:07:22.065Z,-4.98
2022-12-17T10:10:10.692Z,-4.87
2022-12-17T10:12:55.910Z,-4.77
2022-12-17T10:15:41.508Z,-4.80
2022-12-17T10:18:31.232Z,-4.88
2022-12-17T10:21:42.079Z,-4.93
2022-12-17T10:24:29.260Z,-4.89
2022-12-17T10:27:15.248Z,-4.94
2022-12-17T10:30:02.383Z,-4.92
2022-12-17T10:32:49.397Z,-4.90
2022-12-17T10:35:37.242Z,-4.90
2022-12-17T10:38:47.120Z,-4.85
2022-12-17T10:41:49.569Z,-5.03
2022-12-17T10:44:54.962Z,-5.04
2022-12-17T10:47:45.482Z,-5.04
2022-12-17T10:50:32.358Z,-5.05
2022-12-17T10:53:18.601Z,-4.98
2022-12-17T10:56:15.502Z,-5.06
2022-12-17T10:59:06.132Z,-5.06
2022-12-17T11:01:51.702Z,-5.02
2022-12-17T11:04:57.158Z,-5.03
2022-12-17T11:07:44.651Z,-5.12
2022-12-17T11:10:39.531Z,-5.09
2022-12-17T11:13:33.266Z,-5.01
2022-12-17T11:16:20.131Z,-4.95
2022-12-17T11:19:16.874Z,-4.86
2022-12-17T11:22:06.887Z,-4.89
2022-12-17T11:25:08.235Z,-4.95
2022-12-17T11:27:59.534Z,-5.03
2022-12-17T11:34:09.830Z,-5.05
2022-12-17T11:37:06.152Z,-5.10
2022-12-17T11:40:21.790Z,-4.99
2022-12-17T11:43:30.195Z,-5.04
2022-12-17T11:46:39.299Z,-5.04
2022-12-17T11:50:03.046Z,-4.95
2022-12-17T11:52:59.411Z,-5.00
2022-12-17T11:55:53.980Z,-5.01
2022-12-17T11:58:53.089Z,-5.02
2022-12-17T12:01:56.220Z,-5.04
2022-12-17T12:04:47.355Z,-5.08
2022-12-17T12:07:48.531Z,-5.09
2022-12-17T12:10:44.339Z,-5.11
2022-12-17T12:13:47.609Z,-5.09
2022-12-17T12:17:00.734Z,-5.02
2022-12-17T12:20:05.663Z,-5.06
2022-12-17T12:22:58.351Z,-5.03
2022-12-17T12:25:53.288Z,-5.04
2022-12-17T12:29:23.715Z,-4.92
2022-12-17T12:32:23.071Z,-5.04
2022-12-17T12:35:11.224Z,-5.14
2022-12-17T12:37:56.649Z,-5.13
2022-12-17T12:41:20.934Z,-5.01
2022-12-17T12:44:20.655Z,-5.17
2022-12-17T12:47:21.250Z,-5.16
2022-12-17T12:50:18.811Z,-5.08
2022-12-17T12:53:04.807Z,-5.15
2022-12-17T12:55:58.502Z,-5.18
2022-12-17T12:58:45.550Z,-5.18
2022-12-17T13:01:31.793Z,-5.27
2022-12-17T13:04:20.590Z,-5.22
2022-12-17T13:06:49.746Z,-5.19
2022-12-17T13:09:16.756Z,-5.23
2022-12-17T13:11:47.430Z,-5.37
2022-12-17T13:14:19.643Z,-5.25
2022-12-17T13:17:04.645Z,-5.18
2022-12-17T13:19:34.035Z,-5.14
2022-12-17T13:22:24.624Z,-5.32
2022-12-17T13:24:54.543Z,-5.25
2022-12-17T13:27:40.093Z,-5.26
2022-12-17T13:30:32.842Z,-5.20
2022-12-17T13:33:27.045Z,-5.34
2022-12-17T13:36:11.661Z,-5.29
2022-12-17T13:39:05.194Z,-5.33
2022-12-17T13:41:33.924Z,-5.37
2022-12-17T13:44:40.388Z,-5.33
2022-12-17T13:47:20.860Z,-5.41
2022-12-17T13:50:24.352Z,-5.32
2022-12-17T13:52:40.062Z,-5.32
2022-12-17T13:55:18.467Z,-5.48
2022-12-17T13:57:48.289Z,-5.20
2022-12-17T14:00:27.255Z,-5.32
2022-12-17T14:02:55.276Z,-5.25
2022-12-17T14:05:27.926Z,-5.41
2022-12-17T14:07:55.093Z,-5.35
2022-12-17T14:10:21.942Z,-5.36
2022-12-17T14:12:50.115Z,-5.39
2022-12-17T14:15:28.369Z,-5.42
2022-12-17T14:17:56.583Z,-5.43
2022-12-17T14:20:26.631Z,-5.46
2022-12-17T14:22:56.745Z,-5.39
2022-12-17T14:25:27.228Z,-5.36
2022-12-17T14:28:00.574Z,-5.39
2022-12-17T14:30:33.149Z,-5.41
2022-12-17T14:32:59.986Z,-5.44
2022-12-17T14:35:39.867Z,-5.45
2022-12-17T14:38:48.242Z,-5.46
2022-12-17T14:41:47.460Z,-5.39
2022-12-17T14:44:21.736Z,-5.51
2022-12-17T14:46:49.095Z,-5.44
2022-12-17T14:49:19.559Z,-5.43
2022-12-17T14:51:47.943Z,-5.43
2022-12-17T14:54:26.037Z,-5.47
2022-12-17T14:56:55.796Z,-5.44
2022-12-17T14:59:39.363Z,-5.38
2022-12-17T15:02:20.874Z,-5.36
2022-12-17T15:04:47.893Z,-5.33
2022-12-17T15:07:18.146Z,-5.40
2022-12-17T15:09:45.186Z,-5.38
2022-12-17T15:12:11.940Z,-5.42
2022-12-17T15:14:38.664Z,-5.40
2022-12-17T15:17:06.153Z,-5.38
2022-12-17T15:19:33.209Z,-5.50
2022-12-17T15:21:59.921Z,-5.37
2022-12-17T15:24:27.225Z,-5.41
2022-12-17T15:26:54.021Z,-5.48
2022-12-17T15:29:20.810Z,-5.44
2022-12-17T15:31:47.839Z,-5.45
2022-12-17T15:34:14.666Z,-5.40
2022-12-17T15:36:41.474Z,-5.33
2022-12-17T15:39:09.710Z,-5.42
2022-12-17T15:41:55.576Z,-5.47
2022-12-17T15:44:22.343Z,-5.43
2022-12-17T15:46:49.076Z,-5.47
2022-12-17T15:49:15.908Z,-5.49
2022-12-17T15:51:42.671Z,-5.36
2022-12-17T15:54:09.403Z,-5.37
2022-12-17T15:56:37.358Z,-5.43
2022-12-17T15:59:04.255Z,-5.43
2022-12-17T16:01:31.226Z,-5.47
2022-12-17T16:03:58.178Z,-5.42
2022-12-17T16:06:40.971Z,-5.35
2022-12-17T16:09:07.756Z,-5.39
2022-12-17T16:11:34.579Z,-5.51
2022-12-17T16:14:01.365Z,-5.49
2022-12-17T16:16:29.916Z,-5.39
2022-12-17T16:18:56.863Z,-5.52
2022-12-17T16:21:23.682Z,-5.42
2022-12-17T16:23:50.776Z,-5.37
2022-12-17T16:26:17.591Z,-5.43
2022-12-17T16:28:44.669Z,-5.35
2022-12-17T16:31:14.873Z,-5.44
2022-12-17T16:33:43.810Z,-5.30
2022-12-17T16:36:15.606Z,-5.34
2022-12-17T16:38:50.850Z,-5.47
2022-12-17T16:41:19.029Z,-5.51
2022-12-17T16:46:35.870Z,-5.51
2022-12-17T16:49:13.572Z,-5.48
2022-12-17T16:51:41.510Z,-5.51
2022-12-17T16:54:11.071Z,-5.39
2022-12-17T16:56:40.264Z,-5.43
2022-12-17T16:59:08.516Z,-5.41
2022-12-17T17:01:37.012Z,-5.42
2022-12-17T17:04:06.226Z,-5.46
2022-12-17T17:06:34.152Z,-5.47
2022-12-17T17:09:06.532Z,-5.52
2022-12-17T17:11:33.420Z,-5.45
2022-12-17T17:14:00.312Z,-5.42
2022-12-17T17:16:27.305Z,-5.53
2022-12-17T17:18:54.738Z,-5.39
2022-12-17T17:21:57.411Z,-5.47
2022-12-17T17:24:25.987Z,-5.37
2022-12-17T17:26:54.513Z,-5.44
2022-12-17T17:29:22.405Z,-5.45
2022-12-17T17:34:38.948Z,-5.46
2022-12-17T17:37:05.994Z,-5.32
2022-12-17T17:39:34.430Z,-5.43
2022-12-17T17:42:01.906Z,-5.55
2022-12-17T17:44:28.676Z,-5.43
2022-12-17T17:46:55.557Z,-5.40
2022-12-17T17:49:22.478Z,-5.45
2022-12-17T17:54:36.040Z,-5.56
2022-12-17T17:57:02.792Z,-5.56
2022-12-17T17:59:33.597Z,-5.53
2022-12-17T18:02:02.430Z,-5.42
2022-12-17T18:04:29.481Z,-5.48
2022-12-17T18:09:43.001Z,-5.49
2022-12-17T18:12:28.245Z,-5.47
2022-12-17T18:15:13.837Z,-5.50
2022-12-17T18:17:41.574Z,-5.53
2022-12-17T18:20:09.901Z,-5.59
2022-12-17T18:22:37.372Z,-5.58
2022-12-17T18:25:05.027Z,-5.57
2022-12-17T18:27:31.847Z,-5.64
2022-12-17T18:29:58.714Z,-5.60
2022-12-17T18:32:25.882Z,-5.50
2022-12-17T18:34:52.804Z,-5.49
2022-12-17T18:37:19.721Z,-5.43
2022-12-17T18:39:46.579Z,-5.47
2022-12-17T18:42:31.899Z,-5.46
2022-12-17T18:44:58.627Z,-5.46
2022-12-17T18:47:25.769Z,-5.42
2022-12-17T18:49:52.722Z,-5.49
2022-12-17T18:52:19.683Z,-5.44
2022-12-17T18:54:46.522Z,-5.48
2022-12-17T18:57:13.545Z,-5.52
2022-12-17T18:59:41.267Z,-5.45
2022-12-17T19:02:12.542Z,-5.36
2022-12-17T19:04:39.624Z,-5.46
2022-12-17T19:07:06.718Z,-5.51
2022-12-17T19:09:36.926Z,-5.59
2022-12-17T19:12:06.333Z,-5.50
2022-12-17T19:14:34.272Z,-5.36
2022-12-17T19:17:01.546Z,-5.50
2022-12-17T19:19:28.770Z,-5.53
2022-12-17T19:21:56.244Z,-5.54
2022-12-17T19:24:23.997Z,-5.43
2022-12-17T19:26:51.941Z,-5.51
2022-12-17T19:29:20.146Z,-5.46
2022-12-17T19:31:47.259Z,-5.46
2022-12-17T19:34:15.608Z,-5.45
2022-12-17T19:36:43.063Z,-5.55
2022-12-17T19:39:13.478Z,-5.55
2022-12-17T19:41:40.721Z,-5.50
2022-12-17T19:44:12.243Z,-5.40
2022-12-17T19:46:39.250Z,-5.53
2022-12-17T19:49:06.123Z,-5.48
2022-12-17T19:51:33.912Z,-5.48
2022-12-17T19:54:08.005Z,-5.40
2022-12-17T19:56:35.916Z,-5.55
2022-12-17T19:59:06.934Z,-5.57
2022-12-17T20:01:41.186Z,-5.51
2022-12-17T20:04:09.895Z,-5.46
2022-12-17T20:06:36.753Z,-5.46
2022-12-17T20:09:05.466Z,-5.47
2022-12-17T20:11:35.630Z,-5.47
2022-12-17T20:14:26.604Z,-5.53
2022-12-17T20:16:59.785Z,-5.49
2022-12-17T20:19:33.283Z,-5.43
2022-12-17T20:22:01.809Z,-5.39
2022-12-17T20:24:31.788Z,-5.42
2022-12-17T20:27:00.373Z,-5.50
2022-12-17T20:29:27.547Z,-5.49
2022-12-17T20:31:55.525Z,-5.59
2022-12-17T20:34:23.336Z,-5.49
2022-12-17T20:36:54.440Z,-5.62
2022-12-17T20:39:26.696Z,-5.58
2022-12-17T20:41:54.274Z,-5.58
2022-12-17T20:44:21.098Z,-5.58
2022-12-17T20:46:47.966Z,-5.63
2022-12-17T20:49:14.917Z,-5.55
2022-12-17T20:51:42.142Z,-5.62
2022-12-17T20:54:09.947Z,-5.51
2022-12-17T20:56:36.795Z,-5.59
2022-12-17T20:59:07.420Z,-5.52
2022-12-17T21:01:36.578Z,-5.58
2022-12-17T21:04:04.435Z,-5.47
2022-12-17T21:06:36.053Z,-5.66
2022-12-17T21:09:03.831Z,-5.58
2022-12-17T21:11:32.771Z,-5.63
2022-12-17T21:14:06.144Z,-5.61
2022-12-17T21:16:33.435Z,-5.63
2022-12-17T21:19:02.143Z,-5.69
2022-12-17T21:21:31.142Z,-5.62
2022-12-17T21:23:58.381Z,-5.59
2022-12-17T21:26:26.844Z,-5.57
2022-12-17T21:28:54.469Z,-5.62
2022-12-17T21:31:22.545Z,-5.60
2022-12-17T21:33:50.413Z,-5.64
2022-12-17T21:36:18.465Z,-5.60
2022-12-17T21:38:45.234Z,-5.66
2022-12-17T21:41:13.549Z,-5.65
2022-12-17T21:43:40.700Z,-5.66
2022-12-17T21:46:08.134Z,-5.68
2022-12-17T21:48:41.616Z,-5.69
2022-12-17T21:51:10.838Z,-5.65
2022-12-17T21:53:42.202Z,-5.66
2022-12-17T21:56:11.914Z,-5.74
2022-12-17T21:58:39.396Z,-5.73
2022-12-17T22:01:18.219Z,-5.75
2022-12-17T22:03:46.625Z,-5.67
2022-12-17T22:06:15.858Z,-5.80
2022-12-17T22:08:43.277Z,-5.73
2022-12-17T22:11:11.252Z,-5.74
2022-12-17T22:14:06.475Z,-5.82
2022-12-17T22:16:47.253Z,-5.78
2022-12-17T22:19:19.085Z,-5.75
2022-12-17T22:21:49.951Z,-5.77
2022-12-17T22:24:18.664Z,-5.79
2022-12-17T22:26:45.806Z,-5.83
2022-12-17T22:29:12.779Z,-5.76
2022-12-17T22:31:58.060Z,-5.80
2022-12-17T22:34:41.632Z,-5.76
2022-12-17T22:38:46.887Z,-5.69
2022-12-17T22:44:34.253Z,-5.76
2022-12-17T22:44:46.467Z,-5.78
2022-12-17T22:45:50.780Z,-5.74
2022-12-17T22:48:17.536Z,-5.79
2022-12-17T22:50:51.036Z,-5.83
2022-12-17T22:53:31.047Z,-5.75
2022-12-17T22:56:12.396Z,-5.74
2022-12-17T22:58:42.654Z,-5.87
2022-12-17T23:01:09.238Z,-5.85
2022-12-17T23:03:36.080Z,-5.81
2022-12-17T23:06:28.906Z,-5.82
2022-12-17T23:08:55.962Z,-5.79
2022-12-17T23:11:23.704Z,-5.75
2022-12-17T23:13:50.524Z,-5.80
2022-12-17T23:16:17.342Z,-5.74
2022-12-17T23:18:44.819Z,-5.86
2022-12-17T23:21:11.757Z,-5.85
2022-12-17T23:23:38.747Z,-5.87
2022-12-17T23:26:06.562Z,-5.85
2022-12-17T23:28:33.143Z,-5.91
2022-12-17T23:31:05.344Z,-5.95
2022-12-17T23:33:31.940Z,-5.94
2022-12-17T23:36:05.215Z,-5.94
2022-12-17T23:38:31.845Z,-5.88
2022-12-17T23:41:12.563Z,-5.92
2022-12-17T23:43:39.955Z,-6.00
2022-12-17T23:46:07.694Z,-5.99
2022-12-17T23:48:37.363Z,-5.96
2022-12-17T23:51:06.622Z,-5.92
2022-12-17T23:53:34.036Z,-5.95
2022-12-17T23:56:17.442Z,-5.94
2022-12-17T23:58:45.318Z,-5.98
